Aérodrome :
LOGIN :

S'inscrire | Disclaimer

   EN    FR    IT 

 










Légende :    VFR   VFR Marginal   IFR   IFR Intensif   IFR Très Intensif
Visi : 
Plafond : 
>= 8 km
>= 3000ft
5 à 8 km
1000 à 3000 ft
1500m à 5 km
500 à 1000 ft
800 à 1500m
200 à 500 ft
< 800m
< 200 ft
Symboles :   Orages  Brouillard  Fortes neiges  Fortes précipitations  Vent > 20 kt
SIGMETs :   Divers  Orages  Givrage  Turbulence  Onde Orograph.  Cendres Volcan.






- Altitude de l'aérodrome : 410 ft
- Code IATA : AVB


LIPA - Aviano AB Pordenone

DERNIER METAR :
  • 071755Z 03006KT CAVOK 03/02 Q1019 RMK SKC VIS MIN 9999 WIND THR05 /////KT WIND THR23 /////KT A3011 BLU

METARs EXPIRÉS :
  • 071655Z 01008KT CAVOK 05/04 Q1019 RMK SKC VIS MIN 9999 WIND THR05 /////KT WIND THR23 /////KT A3010 BLU
  • 071555Z 03005KT 9999 FEW030 07/05 Q1018 RMK FEW VIS MIN 9999 WIND THR05 /////KT WIND THR23 /////KT A3008 BLU

TAF TAF LIPA
Valide du 07 à 18h jusqu'au 08 à 03h UTC


071700Z 0718/0803 05005KT 9999 FEW050
TEMPO 0721/0803 5000 BR



MET'MAP, la Météo Aéronautique d'un coup d'oeil ! - Copyright ORBIFLY Décembre 2007 - Disclaimer

ORBIFLY MET'MAP TEAM :

Programmation & Développement : Alexandra Zaïnal
Sur une idée originale de : Baudouin d'Aumeries
Assistance à la programmation : Marc-Olivier Méhu
Soutien technique & logistique : Manuel Goepfert

Contact : metmap@orbifly.com




SOURCES & CREDITS :

   NOAA